Time;durP1;ratioP1;P1;durP2;ratioP2;P2;SDS_P1;SDS_P2;PMS_P1;PMS_P2;Temp;Humidity;BMP_temperature;BMP_pressure;BME280_temperature;BME280_humidity;BME280_pressure;Samples;Min_cycle;Max_cycle;Signal;HPM_P1;HPM_P2
2023/10/11 00:00:40;;;;;;;22.92;11.45;;;16.50;99.90;;;;;;6271956;22;20224;-87
2023/10/11 00:05:42;;;;;;;27.95;12.23;;;16.50;99.90;;;;;;6297539;22;20019;-87
2023/10/11 00:08:09;;;;;;;20.90;11.82;;;16.40;99.90;;;;;;6271080;22;20447;-87
2023/10/11 00:10:42;;;;;;;30.92;13.15;;;16.40;99.90;;;;;;6271647;22;20038;-87
2023/10/11 00:13:10;;;;;;;23.55;12.68;;;16.40;99.90;;;;;;6270671;22;20015;-87
2023/10/11 00:15:36;;;;;;;31.65;13.88;;;16.40;99.90;;;;;;6297358;22;20045;-87
2023/10/11 00:18:02;;;;;;;25.70;12.30;;;16.40;99.90;;;;;;6297772;22;20289;-87
2023/10/11 00:20:35;;;;;;;29.75;13.65;;;16.50;99.90;;;;;;6270444;22;20052;-87
2023/10/11 00:23:01;;;;;;;27.55;14.27;;;16.50;99.90;;;;;;6270847;22;20597;-88
2023/10/11 00:25:27;;;;;;;23.08;13.88;;;16.50;99.90;;;;;;6296947;22;20007;-88
2023/10/11 00:27:57;;;;;;;24.00;13.15;;;16.50;99.90;;;;;;6296945;22;20444;-87
2023/10/11 00:30:29;;;;;;;28.67;13.77;;;16.50;99.90;;;;;;6272562;22;20041;-88
2023/10/11 00:32:56;;;;;;;25.23;13.90;;;16.50;99.90;;;;;;6270941;22;20011;-88
2023/10/11 00:35:25;;;;;;;34.15;15.68;;;16.50;99.90;;;;;;6296285;22;20257;-87
2023/10/11 00:37:54;;;;;;;29.00;14.63;;;16.50;99.90;;;;;;6271327;22;20114;-87
2023/10/11 00:40:33;;;;;;;33.45;14.48;;;16.50;99.90;;;;;;6271502;22;20014;-88
2023/10/11 00:43:01;;;;;;;34.42;14.60;;;16.50;99.90;;;;;;6271252;22;20019;-87
2023/10/11 00:45:31;;;;;;;27.40;14.77;;;16.50;99.90;;;;;;6271617;22;20065;-87
2023/10/11 00:48:01;;;;;;;28.50;14.20;;;16.50;99.90;;;;;;6297720;22;20021;-87
2023/10/11 00:50:30;;;;;;;30.50;14.63;;;16.50;99.90;;;;;;6271985;22;20011;-88
2023/10/11 00:53:00;;;;;;;29.35;14.38;;;16.50;99.90;;;;;;6271157;22;20021;-87
2023/10/11 00:55:29;;;;;;;34.05;15.13;;;16.60;99.90;;;;;;6271573;22;20006;-88
2023/10/11 00:57:56;;;;;;;30.50;14.80;;;16.60;99.90;;;;;;6295569;22;20154;-88
2023/10/11 01:00:23;;;;;;;30.25;14.65;;;16.50;99.90;;;;;;6271332;22;20095;-87
2023/10/11 01:02:51;;;;;;;34.13;13.98;;;16.50;99.90;;;;;;6269773;22;20099;-87
2023/10/11 01:05:19;;;;;;;31.35;15.15;;;16.50;99.90;;;;;;6270899;22;20401;-87
2023/10/11 01:07:45;;;;;;;35.35;15.23;;;16.50;99.90;;;;;;6269885;22;20010;-87
2023/10/11 01:10:11;;;;;;;32.38;13.90;;;16.50;99.90;;;;;;6270491;22;20014;-88
2023/10/11 01:12:40;;;;;;;33.90;15.68;;;16.50;99.90;;;;;;6244969;22;20361;-88
2023/10/11 01:15:11;;;;;;;29.77;14.93;;;16.50;99.90;;;;;;6270071;22;20310;-87
2023/10/11 01:17:38;;;;;;;31.40;15.10;;;16.50;99.90;;;;;;6269995;22;20376;-87
2023/10/11 01:20:13;;;;;;;33.28;15.68;;;16.40;99.90;;;;;;6270031;22;20011;-87
2023/10/11 01:22:42;;;;;;;27.02;15.93;;;16.50;99.90;;;;;;6294704;22;20094;-87
2023/10/11 01:25:12;;;;;;;31.73;15.52;;;16.40;99.90;;;;;;6269691;22;20608;-87
2023/10/11 01:27:39;;;;;;;34.47;15.27;;;16.40;99.90;;;;;;6268585;22;20019;-88
2023/10/11 01:30:09;;;;;;;33.03;15.65;;;16.40;99.90;;;;;;6270719;22;20367;-88
2023/10/11 01:32:37;;;;;;;32.17;14.55;;;16.30;99.90;;;;;;6271155;22;20046;-87
2023/10/11 01:35:08;;;;;;;28.98;14.48;;;16.30;99.90;;;;;;6245482;22;20060;-88
2023/10/11 01:37:41;;;;;;;26.38;14.80;;;16.40;99.90;;;;;;6269204;22;20015;-88
2023/10/11 01:40:20;;;;;;;30.90;14.88;;;16.40;99.90;;;;;;6270607;22;20444;-87
2023/10/11 01:42:55;;;;;;;33.20;14.45;;;16.40;99.90;;;;;;6294994;22;20037;-87
2023/10/11 01:45:23;;;;;;;32.53;15.38;;;16.40;99.90;;;;;;6270579;22;20025;-87
2023/10/11 01:47:56;;;;;;;31.70;15.57;;;16.50;99.90;;;;;;6294916;22;20015;-88
2023/10/11 01:50:22;;;;;;;32.45;15.57;;;16.50;99.90;;;;;;6269915;22;20015;-87
2023/10/11 01:52:48;;;;;;;27.77;14.38;;;16.50;99.90;;;;;;6295185;22;20011;-87
2023/10/11 01:55:15;;;;;;;36.25;15.32;;;16.50;99.90;;;;;;6295843;22;20003;-88
2023/10/11 01:57:45;;;;;;;33.47;16.10;;;16.40;99.90;;;;;;6268830;22;20014;-88
2023/10/11 02:00:15;;;;;;;32.67;14.88;;;16.50;99.90;;;;;;6269554;22;20006;-87
2023/10/11 02:02:47;;;;;;;33.60;14.65;;;16.50;99.90;;;;;;6295472;22;20014;-88
2023/10/11 02:05:14;;;;;;;30.48;15.50;;;16.50;99.90;;;;;;6269963;22;20097;-85
2023/10/11 02:07:44;;;;;;;30.65;14.60;;;16.40;99.90;;;;;;6269282;22;20017;-88
2023/10/11 02:10:13;;;;;;;31.52;15.18;;;16.40;99.90;;;;;;6270291;22;20052;-87
2023/10/11 02:12:46;;;;;;;29.83;14.95;;;16.40;99.90;;;;;;6268303;22;20018;-87
2023/10/11 02:15:21;;;;;;;27.85;14.73;;;16.40;99.90;;;;;;6295630;22;20150;-87
2023/10/11 02:17:48;;;;;;;29.70;14.43;;;16.40;99.90;;;;;;6268697;22;20021;-87
2023/10/11 02:20:20;;;;;;;31.88;14.65;;;16.30;99.90;;;;;;6295716;22;20010;-87
2023/10/11 02:22:50;;;;;;;32.58;15.18;;;16.30;99.90;;;;;;6268459;22;20576;-87
2023/10/11 02:25:16;;;;;;;29.50;15.13;;;16.30;99.90;;;;;;6270530;22;20026;-87
2023/10/11 02:27:42;;;;;;;32.53;14.80;;;16.20;99.90;;;;;;6269953;22;20104;-87
2023/10/11 02:30:19;;;;;;;33.25;14.68;;;16.20;99.90;;;;;;6296370;22;20010;-86
2023/10/11 02:32:45;;;;;;;30.63;14.43;;;16.20;99.90;;;;;;6295977;22;20017;-87
2023/10/11 02:35:13;;;;;;;38.55;14.60;;;16.20;99.90;;;;;;6270177;22;20015;-88
2023/10/11 02:37:40;;;;;;;34.00;14.77;;;16.20;99.90;;;;;;6270043;22;20022;-87
2023/10/11 02:40:10;;;;;;;38.67;15.18;;;16.20;99.90;;;;;;6270199;22;20042;-87
2023/10/11 02:42:38;;;;;;;35.83;15.45;;;16.20;99.90;;;;;;6269183;22;20398;-87
2023/10/11 02:45:07;;;;;;;30.73;14.68;;;16.10;99.90;;;;;;6296028;22;20256;-87
2023/10/11 02:47:36;;;;;;;31.40;14.57;;;16.10;99.90;;;;;;6269516;22;20022;-87
2023/10/11 02:50:05;;;;;;;30.13;14.60;;;16.10;99.90;;;;;;6270052;22;20028;-87
2023/10/11 02:52:39;;;;;;;30.20;14.60;;;16.10;99.90;;;;;;6294612;22;20475;-87
2023/10/11 02:55:16;;;;;;;33.65;15.00;;;16.10;99.90;;;;;;6269130;22;20021;-87
2023/10/11 02:57:42;;;;;;;34.03;14.55;;;16.10;99.90;;;;;;6269108;22;20015;-87
2023/10/11 03:00:21;;;;;;;30.83;14.07;;;16.10;99.90;;;;;;6270467;22;20038;-88
2023/10/11 03:02:54;;;;;;;35.45;14.20;;;16.10;99.90;;;;;;6269083;22;20108;-88
2023/10/11 03:05:27;;;;;;;36.47;15.07;;;16.10;99.90;;;;;;6295219;22;20015;-87
2023/10/11 03:11:15;;;;;;;30.60;13.93;;;16.00;99.90;;;;;;6278066;22;20254;-87
2023/10/11 03:13:41;;;;;;;27.33;13.82;;;16.00;99.90;;;;;;6292784;22;20398;-86
2023/10/11 03:16:18;;;;;;;31.65;13.95;;;16.00;99.90;;;;;;6269409;22;20320;-86
2023/10/11 03:18:46;;;;;;;28.20;13.60;;;16.00;99.90;;;;;;6268437;22;20019;-87
2023/10/11 03:21:17;;;;;;;30.83;13.55;;;16.00;99.90;;;;;;6270531;22;20638;-87
2023/10/11 03:23:45;;;;;;;32.33;14.68;;;16.00;99.90;;;;;;6267956;22;20166;-86
2023/10/11 03:29:04;;;;;;;34.30;13.50;;;16.00;99.90;;;;;;6294585;22;20019;-87
2023/10/11 03:31:31;;;;;;;30.80;13.38;;;16.00;99.90;;;;;;6270055;22;20018;-87
2023/10/11 03:33:59;;;;;;;31.20;12.77;;;16.10;99.90;;;;;;6294335;22;20055;-87
2023/10/11 03:36:34;;;;;;;26.80;13.38;;;16.10;99.90;;;;;;6296038;22;20230;-87
2023/10/11 03:39:09;;;;;;;26.02;12.27;;;16.10;99.90;;;;;;6294820;22;20038;-87
2023/10/11 03:41:36;;;;;;;37.10;13.88;;;16.00;99.90;;;;;;6295447;22;20202;-88
2023/10/11 03:44:09;;;;;;;33.95;12.98;;;16.00;99.90;;;;;;6294321;22;20015;-87
2023/10/11 03:46:36;;;;;;;35.83;13.50;;;16.10;99.90;;;;;;6268607;22;20018;-87
2023/10/11 03:51:43;;;;;;;25.88;12.65;;;16.10;99.90;;;;;;6294983;22;20475;-86
2023/10/11 03:54:18;;;;;;;29.75;11.88;;;16.10;99.90;;;;;;6267543;22;20480;-86
2023/10/11 03:56:50;;;;;;;;;;;16.20;99.90;;;;;;6268964;22;20015;-87
2023/10/11 03:59:16;;;;;;;27.05;12.07;;;16.20;99.90;;;;;;6267987;22;19993;-87
2023/10/11 04:01:43;;;;;;;28.67;13.70;;;16.20;99.90;;;;;;6268294;22;20053;-87
2023/10/11 04:04:09;;;;;;;27.70;12.35;;;16.20;99.90;;;;;;6269210;22;20072;-88
2023/10/11 04:06:35;;;;;;;35.90;13.85;;;16.20;99.90;;;;;;6270132;22;20205;-87
2023/10/11 04:09:02;;;;;;;29.70;12.52;;;16.20;99.90;;;;;;6268704;22;20047;-87
2023/10/11 04:11:54;;;;;;;30.70;11.68;;;16.20;99.90;;;;;;6295224;22;20048;-88
2023/10/11 04:14:39;;;;;;;32.47;11.77;;;16.20;99.90;;;;;;6294495;22;20542;-87
2023/10/11 04:19:49;;;;;;;30.15;12.40;;;16.20;99.90;;;;;;6296110;22;20473;-88
2023/10/11 04:22:23;;;;;;;34.13;12.75;;;16.20;99.90;;;;;;6271023;22;20014;-86
2023/10/11 04:24:55;;;;;;;32.65;12.48;;;16.10;99.90;;;;;;6270484;22;20237;-87
2023/10/11 04:29:54;;;;;;;32.92;12.55;;;16.20;99.90;;;;;;6296270;22;20030;-87
2023/10/11 04:38:01;;;;;;;30.92;12.52;;;16.10;99.90;;;;;;6296324;22;20350;-87
2023/10/11 04:43:06;;;;;;;23.42;12.00;;;16.10;99.90;;;;;;6294975;22;20098;-87
2023/10/11 04:45:45;;;;;;;30.17;12.93;;;16.20;99.90;;;;;;6270005;22;20072;-87
2023/10/11 04:48:19;;;;;;;26.80;11.88;;;16.20;99.90;;;;;;6295915;22;20064;-86
2023/10/11 04:50:50;;;;;;;22.17;11.50;;;16.20;99.90;;;;;;6296188;22;20113;-87
2023/10/11 04:53:18;;;;;;;31.77;13.55;;;16.20;99.90;;;;;;6269503;22;20116;-87
2023/10/11 04:55:58;;;;;;;28.73;12.05;;;16.10;99.90;;;;;;6270015;22;20674;-88
2023/10/11 04:58:42;;;;;;;29.67;12.52;;;16.10;99.90;;;;;;6269010;22;20192;-88
2023/10/11 05:01:12;;;;;;;24.00;11.65;;;16.00;99.90;;;;;;6270531;22;20018;-87
2023/10/11 05:03:42;;;;;;;26.20;11.80;;;16.20;99.90;;;;;;6295220;22;20110;-88
2023/10/11 05:06:15;;;;;;;33.67;12.68;;;16.20;99.90;;;;;;6270092;22;20420;-87
2023/10/11 05:08:51;;;;;;;26.13;12.10;;;16.10;99.90;;;;;;6268899;22;20033;-87
2023/10/11 05:14:32;;;;;;;;;;;16.10;99.90;;;;;;6186662;22;20039;-88
2023/10/11 05:17:16;;;;;;;27.73;11.57;;;16.10;99.90;;;;;;6269567;22;20357;-87
2023/10/11 05:19:57;;;;;;;26.65;12.30;;;16.10;99.90;;;;;;6296341;22;20100;-87
2023/10/11 05:23:11;;;;;;;27.83;12.13;;;16.20;99.90;;;;;;6268545;22;20341;-87
2023/10/11 05:27:58;;;;;;;28.40;11.82;;;16.20;99.90;;;;;;6293872;22;20023;-87
2023/10/11 05:30:28;;;;;;;34.05;11.80;;;16.20;99.90;;;;;;6270328;22;20014;-87
2023/10/11 05:33:09;;;;;;;31.42;12.70;;;16.20;99.90;;;;;;6296033;22;20038;-87
2023/10/11 05:51:50;;;;;;;34.57;12.93;;;16.10;99.90;;;;;;6288998;22;20026;-87
2023/10/11 05:54:16;;;;;;;26.00;11.95;;;16.10;99.90;;;;;;6262190;22;20241;-88
2023/10/11 05:56:47;;;;;;;34.35;12.70;;;16.10;99.90;;;;;;6262903;22;20337;-88
2023/10/11 05:59:14;;;;;;;36.00;11.98;;;16.10;99.90;;;;;;6289103;22;20019;-87
2023/10/11 06:01:52;;;;;;;25.65;12.82;;;16.00;99.90;;;;;;6263161;22;20023;-87
2023/10/11 06:04:23;;;;;;;27.80;12.05;;;16.00;99.90;;;;;;6263217;22;20019;-87
2023/10/11 06:06:52;;;;;;;21.95;10.75;;;16.00;99.90;;;;;;6264493;22;20046;-87
2023/10/11 06:09:18;;;;;;;23.80;10.13;;;15.90;99.90;;;;;;6288763;22;20046;-87
2023/10/11 06:11:50;;;;;;;28.65;10.07;;;16.00;99.90;;;;;;6263498;22;20340;-87
2023/10/11 06:14:20;;;;;;;25.77;10.63;;;16.00;99.90;;;;;;6263372;22;20455;-88
2023/10/11 06:16:57;;;;;;;26.15;10.07;;;16.10;99.90;;;;;;6263647;22;20015;-88
2023/10/11 06:19:26;;;;;;;29.50;11.10;;;16.00;99.90;;;;;;6263427;22;20480;-86
2023/10/11 06:21:56;;;;;;;23.60;11.68;;;16.10;99.90;;;;;;6290772;22;20023;-87
2023/10/11 06:24:36;;;;;;;23.10;10.75;;;16.20;99.90;;;;;;6262638;22;20011;-87
2023/10/11 06:29:37;;;;;;;30.27;10.45;;;16.40;99.90;;;;;;6289825;22;20019;-88
2023/10/11 06:32:11;;;;;;;27.27;11.10;;;16.40;99.90;;;;;;6263798;22;20460;-88
2023/10/11 06:34:37;;;;;;;22.60;10.80;;;16.40;99.90;;;;;;6263894;22;20109;-88
2023/10/11 06:37:03;;;;;;;27.10;10.77;;;16.50;99.90;;;;;;6263989;22;20066;-88
2023/10/11 06:45:05;;;;;;;26.63;10.60;;;16.50;99.90;;;;;;6290011;22;20336;-88
2023/10/11 06:47:35;;;;;;;26.73;10.43;;;16.50;99.90;;;;;;6263190;22;20019;-87
2023/10/11 06:50:11;;;;;;;36.63;12.10;;;16.50;99.90;;;;;;6289383;22;20017;-87
2023/10/11 06:52:45;;;;;;;27.58;11.20;;;16.60;99.90;;;;;;6263158;22;20330;-88
2023/10/11 06:55:18;;;;;;;32.33;12.02;;;16.60;99.90;;;;;;6262930;22;20534;-87
2023/10/11 06:57:45;;;;;;;24.85;11.10;;;16.60;99.90;;;;;;6262987;22;20026;-88
2023/10/11 07:00:23;;;;;;;23.73;10.55;;;16.60;99.90;;;;;;6264055;22;20571;-88
2023/10/11 07:02:55;;;;;;;26.55;10.98;;;16.60;99.90;;;;;;6263572;22;20011;-87
2023/10/11 07:05:25;;;;;;;;;;;16.70;99.90;;;;;;6264085;22;20081;-88
2023/10/11 07:07:52;;;;;;;25.08;11.00;;;16.70;99.90;;;;;;6288249;22;19914;-87
2023/10/11 07:10:40;;;;;;;27.20;10.98;;;16.70;99.90;;;;;;6288842;22;20022;-88
2023/10/11 07:13:06;;;;;;;26.20;10.55;;;16.80;99.90;;;;;;6288407;22;20011;-87
2023/10/11 07:15:44;;;;;;;24.70;10.00;;;16.90;99.90;;;;;;6263475;22;20015;-88
2023/10/11 07:18:21;;;;;;;24.88;10.07;;;16.80;99.90;;;;;;6289667;22;20019;-88
2023/10/11 07:20:49;;;;;;;26.08;9.77;;;16.80;99.90;;;;;;6262296;22;20408;-87
2023/10/11 07:23:20;;;;;;;27.67;11.10;;;16.90;99.90;;;;;;6261850;22;20507;-88
2023/10/11 07:25:59;;;;;;;22.92;9.95;;;16.90;99.90;;;;;;6262447;22;20270;-88
2023/10/11 07:28:35;;;;;;;20.90;9.60;;;16.90;99.90;;;;;;6261033;22;20016;-87
2023/10/11 07:31:03;;;;;;;27.63;10.55;;;16.90;99.90;;;;;;6288257;22;20072;-88
2023/10/11 07:33:29;;;;;;;34.58;11.13;;;16.90;99.90;;;;;;6288071;22;20003;-87
2023/10/11 07:35:59;;;;;;;30.73;10.70;;;16.90;99.90;;;;;;6288951;22;20096;-87
2023/10/11 07:38:32;;;;;;;27.25;11.02;;;17.00;99.90;;;;;;6287444;22;20080;-89
2023/10/11 07:41:04;;;;;;;28.30;10.32;;;16.90;99.90;;;;;;6289209;22;20086;-89
2023/10/11 07:43:32;;;;;;;24.70;10.70;;;17.00;99.90;;;;;;6262652;22;20285;-88
2023/10/11 07:46:01;;;;;;;28.75;10.68;;;17.00;99.90;;;;;;6263306;22;20382;-88
2023/10/11 07:48:31;;;;;;;21.92;9.93;;;17.00;99.90;;;;;;6262044;22;20119;-88
2023/10/11 07:51:03;;;;;;;27.42;11.07;;;17.00;99.90;;;;;;6263704;22;20493;-87
2023/10/11 07:53:28;;;;;;;21.02;11.23;;;17.00;99.90;;;;;;6264133;22;20467;-87
2023/10/11 07:55:57;;;;;;;24.23;10.82;;;17.00;99.90;;;;;;6291364;22;20026;-88
2023/10/11 07:58:32;;;;;;;26.40;11.00;;;17.00;99.90;;;;;;6263697;22;20015;-89
2023/10/11 08:01:15;;;;;;;32.05;11.73;;;17.10;99.90;;;;;;6264932;22;20061;-88
2023/10/11 08:03:44;;;;;;;30.48;11.27;;;17.10;99.90;;;;;;6264255;22;20102;-88
2023/10/11 08:06:12;;;;;;;36.72;12.05;;;17.10;99.90;;;;;;6264716;22;20046;-87
2023/10/11 08:08:38;;;;;;;33.63;12.93;;;17.10;99.90;;;;;;6289406;22;20022;-88
2023/10/11 08:11:18;;;;;;;32.03;12.48;;;17.20;99.90;;;;;;6265049;22;20053;-88
2023/10/11 08:13:47;;;;;;;36.30;12.60;;;17.20;99.90;;;;;;6289941;22;20065;-88
2023/10/11 08:16:18;;;;;;;28.75;13.23;;;17.20;99.90;;;;;;6290697;22;20007;-88
2023/10/11 08:18:48;;;;;;;29.40;13.43;;;17.30;99.90;;;;;;6264393;22;20430;-87
2023/10/11 08:21:16;;;;;;;40.67;14.35;;;17.20;99.90;;;;;;6291199;22;20455;-88
2023/10/11 08:23:44;;;;;;;30.75;14.23;;;17.20;99.90;;;;;;6263428;22;20061;-88
2023/10/11 08:26:14;;;;;;;35.75;15.38;;;17.30;99.90;;;;;;6264979;22;20051;-88
2023/10/11 08:28:51;;;;;;;33.13;16.02;;;17.20;99.90;;;;;;6289401;22;20081;-87
2023/10/11 08:31:37;;;;;;;31.00;14.25;;;17.20;99.90;;;;;;6290534;22;20330;-88
2023/10/11 08:34:04;;;;;;;32.05;15.10;;;17.20;99.90;;;;;;6268682;22;20042;-87
2023/10/11 08:36:35;;;;;;;32.90;16.05;;;17.30;99.90;;;;;;6296333;22;20039;-88
2023/10/11 08:39:06;;;;;;;28.73;13.85;;;17.20;99.90;;;;;;6268098;22;20074;-88
2023/10/11 08:41:35;;;;;;;27.25;13.32;;;17.30;99.90;;;;;;6270050;22;20015;-87
2023/10/11 08:44:15;;;;;;;32.40;13.55;;;17.30;99.90;;;;;;6269509;22;20260;-88
2023/10/11 08:46:48;;;;;;;25.88;11.27;;;17.30;99.90;;;;;;6269499;22;20110;-88
2023/10/11 08:49:14;;;;;;;22.42;9.98;;;17.40;99.90;;;;;;6269445;22;20019;-88
2023/10/11 08:51:41;;;;;;;19.90;10.55;;;17.40;99.90;;;;;;6268867;22;20205;-85
2023/10/11 08:54:11;;;;;;;25.83;10.20;;;17.40;99.90;;;;;;6268014;22;20018;-84
2023/10/11 08:56:38;;;;;;;20.45;10.07;;;17.50;99.90;;;;;;6269249;22;20527;-85
2023/10/11 08:59:05;;;;;;;23.75;9.80;;;17.50;99.90;;;;;;6269040;22;20471;-85
2023/10/11 09:01:36;;;;;;;25.00;9.90;;;17.50;99.90;;;;;;6295362;22;20015;-85
2023/10/11 09:04:07;;;;;;;18.17;8.95;;;17.50;99.90;;;;;;6269353;22;20069;-85
2023/10/11 09:06:41;;;;;;;18.42;8.45;;;17.50;99.90;;;;;;6270120;22;20094;-88
2023/10/11 09:09:07;;;;;;;20.25;9.30;;;17.50;99.90;;;;;;6294193;22;20018;-87
2023/10/11 09:11:33;;;;;;;19.42;8.65;;;17.50;99.90;;;;;;6269619;22;20018;-88
2023/10/11 09:14:24;;;;;;;17.90;8.20;;;17.50;99.90;;;;;;6268339;22;20010;-88
2023/10/11 09:16:51;;;;;;;16.55;8.40;;;17.40;99.90;;;;;;6269797;22;20010;-88
2023/10/11 09:19:19;;;;;;;19.42;8.23;;;17.40;99.90;;;;;;6269179;22;20068;-87
2023/10/11 09:22:18;;;;;;;19.70;8.95;;;17.40;99.90;;;;;;6295471;22;20037;-88
2023/10/11 09:24:44;;;;;;;21.13;7.72;;;17.40;99.90;;;;;;6267771;22;20018;-88
2023/10/11 09:29:57;;;;;;;21.02;7.80;;;17.30;99.90;;;;;;6294302;22;20100;-84
2023/10/11 09:32:32;;;;;;;18.50;7.93;;;17.40;99.90;;;;;;6268016;22;20015;-85
2023/10/11 09:34:57;;;;;;;17.58;7.95;;;17.40;99.90;;;;;;6268463;22;20335;-84
2023/10/11 09:37:23;;;;;;;15.77;7.18;;;17.40;99.90;;;;;;6268809;22;20019;-84
2023/10/11 09:39:52;;;;;;;14.82;6.88;;;17.50;99.90;;;;;;6268238;22;20541;-84
2023/10/11 09:42:24;;;;;;;15.63;6.60;;;17.50;99.90;;;;;;6268361;22;20184;-84
2023/10/11 09:44:57;;;;;;;16.20;6.40;;;17.50;99.90;;;;;;6268997;22;20038;-84
2023/10/11 09:47:24;;;;;;;18.27;7.32;;;17.60;99.90;;;;;;6294121;22;20333;-85
2023/10/11 09:49:53;;;;;;;12.52;6.43;;;17.80;99.90;;;;;;6294226;22;20011;-84
2023/10/11 09:52:23;;;;;;;14.23;6.47;;;18.00;99.90;;;;;;6269059;22;20085;-84
2023/10/11 09:54:51;;;;;;;17.38;6.68;;;18.10;99.90;;;;;;6267682;22;20029;-85
2023/10/11 09:57:25;;;;;;;11.52;6.60;;;18.10;99.90;;;;;;6293453;22;20007;-85
2023/10/11 10:00:14;;;;;;;;;;;18.20;99.90;;;;;;6269774;22;20088;-85
2023/10/11 10:02:46;;;;;;;11.70;5.97;;;18.20;99.90;;;;;;6268308;22;20295;-85
2023/10/11 10:05:13;;;;;;;11.75;6.00;;;18.40;99.90;;;;;;6268981;22;20021;-84
2023/10/11 10:10:12;;;;;;;16.35;5.95;;;18.70;99.90;;;;;;6294466;22;20026;-85
2023/10/11 10:12:56;;;;;;;12.05;5.70;;;18.70;99.90;;;;;;6267199;22;20011;-85
2023/10/11 10:15:23;;;;;;;10.32;5.25;;;18.80;99.90;;;;;;6294045;22;20007;-85
2023/10/11 10:18:14;;;;;;;11.77;5.93;;;18.90;99.90;;;;;;6267486;22;20046;-85
2023/10/11 10:20:41;;;;;;;13.80;5.40;;;19.00;99.90;;;;;;6250406;22;20015;-84
2023/10/11 10:23:16;;;;;;;11.63;5.30;;;19.10;99.90;;;;;;6267299;22;20027;-85
2023/10/11 10:25:46;;;;;;;9.48;5.38;;;19.10;99.90;;;;;;6293553;22;20439;-85
2023/10/11 10:31:09;;;;;;;10.88;4.60;;;19.00;99.90;;;;;;6294281;22;20019;-84
2023/10/11 10:33:35;;;;;;;10.23;4.88;;;18.70;99.90;;;;;;6268211;22;20071;-84
2023/10/11 10:36:28;;;;;;;10.70;4.43;;;18.70;99.90;;;;;;6294745;22;20010;-84
2023/10/11 10:39:00;;;;;;;9.30;4.30;;;18.80;99.90;;;;;;6293114;22;20369;-84
2023/10/11 10:41:26;;;;;;;11.48;4.60;;;18.80;99.90;;;;;;6268438;22;20046;-84
2023/10/11 10:44:04;;;;;;;9.43;4.45;;;19.10;99.90;;;;;;6267772;22;20055;-84
2023/10/11 10:46:34;;;;;;;10.07;5.00;;;19.30;99.90;;;;;;6294636;22;20037;-84
2023/10/11 10:49:01;;;;;;;8.18;5.07;;;19.40;99.90;;;;;;6267977;22;20338;-85
2023/10/11 10:51:37;;;;;;;8.25;4.45;;;19.80;99.90;;;;;;6269032;22;20147;-85
2023/10/11 10:54:13;;;;;;;13.05;5.30;;;19.90;99.90;;;;;;6266921;22;20014;-84
2023/10/11 10:56:46;;;;;;;10.05;5.50;;;19.90;99.90;;;;;;6294597;22;20182;-85
2023/10/11 10:59:20;;;;;;;12.77;5.05;;;20.00;99.90;;;;;;6267213;22;20141;-86
2023/10/11 11:01:47;;;;;;;10.30;4.30;;;20.10;99.90;;;;;;6268301;22;20011;-84
2023/10/11 11:04:14;;;;;;;7.97;4.07;;;20.20;99.90;;;;;;6267907;22;20230;-85
2023/10/11 11:06:47;;;;;;;11.00;4.40;;;20.10;99.90;;;;;;6294356;22;20023;-85
2023/10/11 11:09:15;;;;;;;9.82;3.90;;;19.90;99.90;;;;;;6267772;22;20019;-84
2023/10/11 11:11:44;;;;;;;8.75;3.38;;;19.60;99.90;;;;;;6267810;22;20022;-85
2023/10/11 11:14:19;;;;;;;8.88;3.30;;;19.70;99.90;;;;;;6293685;22;20094;-85
2023/10/11 11:16:57;;;;;;;9.98;3.83;;;19.70;99.90;;;;;;6268072;22;20010;-85
2023/10/11 11:19:26;;;;;;;9.35;3.25;;;20.20;99.90;;;;;;6294198;22;20090;-85
2023/10/11 11:22:11;;;;;;;11.30;3.85;;;19.80;99.90;;;;;;6269524;22;20010;-85
2023/10/11 11:24:38;;;;;;;6.20;3.13;;;19.90;99.90;;;;;;6294117;22;20068;-84
2023/10/11 11:27:25;;;;;;;7.38;3.47;;;19.80;99.90;;;;;;6295360;22;20025;-84
2023/10/11 11:30:02;;;;;;;9.38;3.40;;;19.90;99.90;;;;;;6270426;22;20015;-85
2023/10/11 11:32:38;;;;;;;10.30;3.33;;;20.20;99.90;;;;;;6295105;22;20075;-85
2023/10/11 11:38:07;;;;;;;4.63;3.05;;;20.00;99.90;;;;;;6201314;23;20038;-85
2023/10/11 11:40:46;;;;;;;9.60;3.30;;;19.80;99.90;;;;;;6274875;22;20501;-84
2023/10/11 11:43:13;;;;;;;6.45;3.22;;;19.60;99.90;;;;;;6269502;22;20093;-84
2023/10/11 11:45:38;;;;;;;8.60;3.38;;;19.70;99.90;;;;;;6269382;22;20525;-84
2023/10/11 11:48:05;;;;;;;7.43;3.38;;;19.80;99.90;;;;;;6269842;22;20045;-84
2023/10/11 11:50:33;;;;;;;5.63;3.03;;;19.90;99.90;;;;;;6294984;22;20050;-84
2023/10/11 11:53:03;;;;;;;6.32;3.17;;;20.10;99.90;;;;;;6268669;22;20042;-85
2023/10/11 11:55:29;;;;;;;7.40;2.90;;;20.00;99.90;;;;;;6270562;22;20011;-84
2023/10/11 11:57:55;;;;;;;5.75;2.92;;;20.20;99.90;;;;;;6269718;22;20442;-84
2023/10/11 12:02:54;;;;;;;8.68;2.90;;;20.50;99.90;;;;;;6295497;22;20474;-84
2023/10/11 12:05:20;;;;;;;9.32;3.10;;;20.30;99.90;;;;;;6269781;22;20442;-85
2023/10/11 12:07:48;;;;;;;5.85;3.20;;;20.50;99.90;;;;;;6295536;22;20030;-84
2023/10/11 12:10:23;;;;;;;6.93;3.00;;;20.70;99.90;;;;;;6270872;22;20506;-85
2023/10/11 12:12:53;;;;;;;5.68;2.88;;;20.70;99.90;;;;;;6269689;22;20011;-85
2023/10/11 12:15:20;;;;;;;6.63;3.45;;;20.90;99.90;;;;;;6297436;22;20030;-84
2023/10/11 12:17:47;;;;;;;10.85;3.70;;;21.00;99.90;;;;;;6270787;22;20614;-84
2023/10/11 12:20:17;;;;;;;10.20;3.50;;;21.20;99.90;;;;;;6270902;22;20010;-85
2023/10/11 12:22:42;;;;;;;8.77;3.75;;;21.30;99.90;;;;;;6269536;22;20455;-85
2023/10/11 12:25:09;;;;;;;6.22;3.25;;;21.00;99.90;;;;;;6269702;22;20018;-85
2023/10/11 12:27:41;;;;;;;9.30;3.30;;;20.60;99.90;;;;;;6269186;22;20010;-85
2023/10/11 12:30:19;;;;;;;10.35;2.85;;;20.70;99.90;;;;;;6296367;22;20214;-85
2023/10/11 12:32:52;;;;;;;6.18;2.70;;;20.90;99.90;;;;;;6270447;22;20450;-85
2023/10/11 12:35:23;;;;;;;6.95;3.10;;;21.10;99.90;;;;;;6270048;22;20097;-84
2023/10/11 12:37:49;;;;;;;5.10;2.80;;;21.00;99.90;;;;;;6294370;22;20011;-85
2023/10/11 12:40:24;;;;;;;6.13;2.83;;;20.80;99.90;;;;;;6270686;22;20038;-84
2023/10/11 12:42:50;;;;;;;7.50;3.05;;;20.40;99.90;;;;;;6269526;22;20107;-84
2023/10/11 12:45:19;;;;;;;8.13;2.80;;;20.50;99.90;;;;;;6270070;22;20019;-85
2023/10/11 12:47:45;;;;;;;8.10;2.83;;;20.40;99.90;;;;;;6269444;22;20019;-85
2023/10/11 12:50:13;;;;;;;7.90;3.03;;;20.20;99.90;;;;;;6270644;22;20207;-85
2023/10/11 12:52:40;;;;;;;4.88;2.80;;;20.30;99.90;;;;;;6269561;22;20021;-86
2023/10/11 12:55:12;;;;;;;5.63;2.90;;;20.20;99.90;;;;;;6270723;22;20030;-85
2023/10/11 12:57:39;;;;;;;6.38;2.75;;;20.50;99.90;;;;;;6269398;22;20021;-84
2023/10/11 13:03:13;;;;;;;7.40;2.70;;;20.50;99.90;;;;;;6295709;22;20405;-84
2023/10/11 13:05:39;;;;;;;6.40;2.65;;;20.40;99.90;;;;;;6295920;22;20017;-84
2023/10/11 13:08:05;;;;;;;9.52;2.92;;;20.90;99.90;;;;;;6295367;22;20097;-85
2023/10/11 13:10:33;;;;;;;8.15;3.00;;;20.70;99.90;;;;;;6270319;22;20345;-85
2023/10/11 13:13:08;;;;;;;7.80;3.15;;;20.50;99.90;;;;;;6269850;22;20009;-85
2023/10/11 13:15:34;;;;;;;7.07;2.95;;;20.20;99.90;;;;;;6270363;22;20518;-85
2023/10/11 13:18:00;;;;;;;7.18;2.65;;;20.00;99.90;;;;;;6270120;22;20053;-85
2023/10/11 13:20:31;;;;;;;8.00;2.70;;;19.80;99.90;;;;;;6270128;22;20439;-84
2023/10/11 13:22:59;;;;;;;8.75;3.17;;;19.80;99.90;;;;;;6295687;22;20025;-84
2023/10/11 13:25:25;;;;;;;10.10;2.85;;;19.80;99.90;;;;;;6270423;22;20014;-84
2023/10/11 13:28:02;;;;;;;5.95;2.67;;;19.60;99.90;;;;;;6269551;22;20015;-84
2023/10/11 13:30:28;;;;;;;7.53;3.08;;;19.80;99.90;;;;;;6270290;22;20473;-85
2023/10/11 13:32:57;;;;;;;5.68;2.92;;;20.00;99.90;;;;;;6295833;22;20301;-84
2023/10/11 13:35:23;;;;;;;9.85;3.03;;;20.00;99.90;;;;;;6269819;22;20094;-85
2023/10/11 13:37:50;;;;;;;5.88;2.90;;;20.00;99.90;;;;;;6269450;22;20362;-83
2023/10/11 13:40:17;;;;;;;10.32;3.13;;;20.00;99.90;;;;;;6269013;22;20021;-85
2023/10/11 13:42:43;;;;;;;9.13;3.35;;;20.00;99.90;;;;;;6269170;22;20055;-84
2023/10/11 13:45:14;;;;;;;9.30;2.95;;;19.90;99.90;;;;;;6296167;22;20082;-84
2023/10/11 13:47:41;;;;;;;8.93;2.85;;;19.90;99.90;;;;;;6269678;22;20045;-85
2023/10/11 13:50:20;;;;;;;6.32;3.05;;;19.90;99.90;;;;;;6269807;22;20265;-85
2023/10/11 13:52:51;;;;;;;8.32;2.97;;;19.70;99.90;;;;;;6268709;22;20017;-85
2023/10/11 13:55:23;;;;;;;9.45;3.45;;;19.70;99.90;;;;;;6270375;22;20359;-86
2023/10/11 13:57:52;;;;;;;9.90;3.33;;;19.60;99.90;;;;;;6269248;22;20068;-85
2023/10/11 14:05:46;;;;;;;10.43;4.03;;;19.60;99.90;;;;;;6295704;22;20405;-85
2023/10/11 14:08:24;;;;;;;5.57;3.33;;;19.60;99.90;;;;;;6293865;22;20089;-85